Aérodrome :
LOGIN :

S'inscrire | Disclaimer

   EN    FR    IT 

 










Légende :    VFR   VFR Marginal   IFR   IFR Intensif   IFR Très Intensif
Visi : 
Plafond : 
>= 8 km
>= 3000ft
5 à 8 km
1000 à 3000 ft
1500m à 5 km
500 à 1000 ft
800 à 1500m
200 à 500 ft
< 800m
< 200 ft
Symboles :   Orages  Brouillard  Fortes neiges  Fortes précipitations  Vent > 20 kt
SIGMETs :   Divers  Orages  Givrage  Turbulence  Onde Orograph.  Cendres Volcan.






- Altitude de l'aérodrome : 2835 ft
- Code IATA : ISE


LTFC - Suleyman Demirel

DERNIER METAR :
  • 060950Z 06005KT 010V100 CAVOK 07/M04 Q1023 RMK RWY23 04004KT 360V080

METARs EXPIRÉS :
  • 060920Z 08005KT 350V150 CAVOK 06/M03 Q1023 RMK RWY23 04003KT 300V080
  • 060850Z 35004KT 300V040 CAVOK 05/M03 Q1023 RMK RWY23 36003KT 270V050
  • 060820Z VRB02KT CAVOK 03/M04 Q1024 RMK RWY23 00000KT
  • 060750Z VRB02KT CAVOK 02/M04 Q1024 RMK RWY23 VRB02KT
  • 060720Z VRB02KT CAVOK 01/M04 Q1024 RMK RWY23 00000KT

TAF TAF LTFC
Valide du 06 à 06h jusqu'au 07 à 06h UTC


060440Z 0606/0706 VRB02KT CAVOK



MET'MAP, la Météo Aéronautique d'un coup d'oeil ! - Copyright ORBIFLY Décembre 2007 - Disclaimer

ORBIFLY MET'MAP TEAM :

Programmation & Développement : Alexandra Zaïnal
Sur une idée originale de : Baudouin d'Aumeries
Assistance à la programmation : Marc-Olivier Méhu
Soutien technique & logistique : Manuel Goepfert

Contact : metmap@orbifly.com




SOURCES & CREDITS :

   NOAA